Airfield :







YOU CAN JOIN US ON...

 
LOGIN :

Register | Disclaimer

   EN    FR    IT 

 









Legend :    VFR   Marginal VFR   IFR   Intensive IFR   Very Intensive IFR
Visi :
Ceiling :
>= 8 km
>= 3000ft
5 to 8 km
1000 to 3000 ft
1500m to 5 km
500 to 1000 ft
800 to 1500m
200 to 500 ft
< 800m
< 200 ft
Symbols :   Thunderstorms  Fog  Heavy snow  Heavy precipitations  Wind > 20 kt







- Airport Elevation : 193 ft
- IATA code : ZBF


CZBF - Bathurst

CURRENT METAR :
  • 251310Z AUTO 03008G16KT 9SM OVC013 M00/M02 A2995 RMK SLP147

EXPIRED METARs :
  • 251259Z AUTO 04012G19KT 6SM -SN OVC011 M00/M02 A2995 RMK SLP147
  • 251245Z AUTO 03006G18KT 3SM -SN OVC011 M01/M02 A2995 RMK SLP148
  • 251226Z AUTO 03010G16KT 2SM -SN OVC012 M01/M02 A2995 RMK SLP147
  • 251200Z AUTO 04009G18KT 350V060 1 1/2SM -SN BKN010 OVC016 M01/M02 A2995 RMK SLP147
  • 251154Z AUTO 03011G18KT 350V070 1 3/4SM -SN BKN010 OVC014 M01/M02 A2995 RMK SLP147
  • 251140Z AUTO 03007G18KT 360V070 2 1/2SM -SN BKN010 OVC016 M01/M02 A2995 RMK SLP146
  • 251128Z AUTO 03010G17KT 5SM -SN OVC010 M01/M02 A2995 RMK SLP146
  • 251100Z AUTO 03008G22KT 4SM -SN OVC008 M01/M02 A2994 RMK SLP144

TAF TAF CZBF
Valid from the 25 at 09:00 until the 25 at 21:00 UTC


250838Z 2509/2521 04010G20KT 2SM -SN OVC006
TEMPO 2509/2515 6SM -SN SCT006 OVC012
FM251500 02012KT 3SM -SN SCT008 OVC015
FM251900 06008KT P6SM BKN015 OVC040 RMK FCST BASED ON AUTO OBS. NXT FCST BY 251400Z
CZQM FIR / North America



MET'MAP, your aeronautical weather chart ! - Copyright ORBIFLY December 2007 - Disclaimer

ORBIFLY MET'MAP TEAM :

Programming & Development : Alexandra Zaïnal
Concept & Development : Baudouin d'Aumeries
Co-Development & Prog : Marc-Olivier Méhu
Technical & hardware support : Manuel Goepfert

Contact : metmap@orbifly.com




SOURCES & CREDITS :

   NOAA